Time;durP1;ratioP1;P1;durP2;ratioP2;P2;SDS_P1;SDS_P2;PMS_P1;PMS_P2;Temp;Humidity;BMP_temperature;BMP_pressure;BME280_temperature;BME280_humidity;BME280_pressure;Samples;Min_cycle;Max_cycle;Signal;HPM_P1;HPM_P2
2022/05/26 00:02:14;;;;;;;10.57;10.27;;;12.70;99.90;;;;;;5129881;28;20238;-86
2022/05/26 00:04:45;;;;;;;10.40;10.10;;;12.70;99.90;;;;;;5128505;28;20225;-86
2022/05/26 00:07:13;;;;;;;10.30;10.00;;;12.60;99.90;;;;;;5127521;27;20286;-86
2022/05/26 00:09:44;;;;;;;10.30;10.00;;;12.50;99.90;;;;;;5128096;28;20229;-86
2022/05/26 00:12:12;;;;;;;10.30;10.00;;;12.50;99.90;;;;;;5127894;27;20334;-85
2022/05/26 00:14:43;;;;;;;10.10;9.80;;;12.50;99.90;;;;;;5128020;28;20230;-85
2022/05/26 00:17:15;;;;;;;10.30;10.00;;;12.50;99.90;;;;;;5127493;27;20229;-85
2022/05/26 00:19:44;;;;;;;10.50;10.20;;;12.50;99.90;;;;;;5127722;27;20240;-85
2022/05/26 00:22:12;;;;;;;10.30;10.00;;;12.50;99.90;;;;;;5127701;28;20688;-85
2022/05/26 00:24:41;;;;;;;10.30;10.00;;;12.40;99.90;;;;;;5137658;27;20212;-85
2022/05/26 00:27:10;;;;;;;10.40;10.10;;;12.40;99.90;;;;;;5138998;27;20301;-85
2022/05/26 00:29:40;;;;;;;10.40;10.10;;;12.40;99.90;;;;;;5133814;28;20235;-86
2022/05/26 00:32:09;;;;;;;10.33;10.03;;;12.40;99.90;;;;;;5131249;28;20233;-85
2022/05/26 00:34:48;;;;;;;10.20;9.90;;;12.40;99.90;;;;;;5130204;28;20220;-85
2022/05/26 00:37:17;;;;;;;10.50;10.20;;;12.40;99.90;;;;;;5129404;28;20229;-85
2022/05/26 00:39:47;;;;;;;10.60;10.30;;;12.40;99.90;;;;;;5129230;27;20229;-85
2022/05/26 00:42:16;;;;;;;10.63;10.33;;;12.30;99.90;;;;;;5128880;28;20228;-86
2022/05/26 00:44:46;;;;;;;10.40;10.10;;;12.30;99.90;;;;;;5128668;28;20294;-85
2022/05/26 00:47:24;;;;;;;10.57;10.27;;;12.40;99.90;;;;;;5127520;28;20247;-86
2022/05/26 00:50:02;;;;;;;10.20;9.90;;;12.40;99.90;;;;;;5127658;28;20232;-86
2022/05/26 00:52:42;;;;;;;10.30;10.00;;;12.40;99.90;;;;;;5128111;28;20240;-86
2022/05/26 00:55:19;;;;;;;10.30;10.00;;;12.50;99.90;;;;;;5133369;28;20228;-86
2022/05/26 00:57:57;;;;;;;10.47;10.17;;;12.50;99.90;;;;;;5137950;28;20252;-85
2022/05/26 01:00:28;;;;;;;10.50;10.20;;;12.60;99.90;;;;;;5139100;28;20228;-85
2022/05/26 01:03:07;;;;;;;10.30;10.00;;;12.60;99.90;;;;;;5138339;28;20239;-86
2022/05/26 01:05:43;;;;;;;10.27;9.97;;;12.70;99.90;;;;;;5132278;28;20235;-86
2022/05/26 01:08:31;;;;;;;10.60;10.30;;;12.70;99.90;;;;;;5131355;27;20306;-86
2022/05/26 01:10:59;;;;;;;10.40;10.10;;;12.70;99.90;;;;;;5131108;28;20228;-86
2022/05/26 01:13:29;;;;;;;10.30;10.00;;;12.70;99.90;;;;;;5130255;27;20237;-86
2022/05/26 01:16:07;;;;;;;10.30;10.00;;;12.80;99.90;;;;;;5130672;28;20225;-86
2022/05/26 01:18:56;;;;;;;10.40;10.10;;;12.80;99.90;;;;;;5128799;27;20232;-85
2022/05/26 01:21:32;;;;;;;10.37;10.07;;;12.90;99.90;;;;;;5128676;27;20263;-86
2022/05/26 01:24:54;;;;;;;10.57;10.27;;;12.90;99.90;;;;;;5128227;28;20254;-86
2022/05/26 01:27:32;;;;;;;10.47;10.17;;;12.90;99.90;;;;;;5123126;28;20255;-86
2022/05/26 01:30:30;;;;;;;10.33;10.03;;;12.90;99.90;;;;;;5127251;27;20252;-86
2022/05/26 01:33:32;;;;;;;10.40;10.10;;;13.00;99.90;;;;;;5126919;28;20368;-86
2022/05/26 01:36:21;;;;;;;10.27;9.97;;;13.00;99.90;;;;;;5126498;28;20236;-86
2022/05/26 01:39:06;;;;;;;10.10;9.80;;;13.10;99.90;;;;;;5127615;27;20231;-86
2022/05/26 01:41:54;;;;;;;10.00;9.70;;;13.10;99.90;;;;;;5133076;28;20229;-86
2022/05/26 01:44:40;;;;;;;10.20;9.90;;;13.20;99.90;;;;;;5132234;28;20284;-85
2022/05/26 01:47:19;;;;;;;10.27;9.97;;;13.20;99.90;;;;;;5140256;27;20224;-85
2022/05/26 01:50:00;;;;;;;10.33;10.03;;;13.20;99.90;;;;;;5140858;28;20247;-85
2022/05/26 01:52:36;;;;;;;10.20;9.90;;;13.20;99.90;;;;;;5129036;28;20236;-86
2022/05/26 01:55:14;;;;;;;10.13;9.83;;;13.30;99.90;;;;;;5126758;28;20243;-86
2022/05/26 01:57:54;;;;;;;10.10;9.80;;;13.30;99.90;;;;;;5128074;28;20247;-86
2022/05/26 02:00:23;;;;;;;10.17;9.87;;;13.40;99.90;;;;;;5126897;28;20225;-85
2022/05/26 02:02:59;;;;;;;9.90;9.60;;;13.40;99.90;;;;;;5126511;28;20244;-86
2022/05/26 02:05:37;;;;;;;10.20;9.90;;;13.40;99.90;;;;;;5126404;27;20225;-86
2022/05/26 02:08:17;;;;;;;10.47;10.17;;;13.40;99.90;;;;;;5125724;27;20239;-85
2022/05/26 02:10:55;;;;;;;10.30;10.00;;;13.40;99.90;;;;;;5126431;28;20225;-86
2022/05/26 02:13:34;;;;;;;10.20;9.90;;;13.40;99.90;;;;;;5126338;27;20236;-85
2022/05/26 02:16:13;;;;;;;10.13;9.83;;;13.40;99.90;;;;;;5126677;27;20229;-86
2022/05/26 02:18:51;;;;;;;10.40;10.10;;;13.50;99.90;;;;;;5125360;27;20236;-86
2022/05/26 02:21:31;;;;;;;10.27;9.97;;;13.50;99.90;;;;;;5125729;28;20228;-85
2022/05/26 02:24:06;;;;;;;10.40;10.10;;;13.50;99.90;;;;;;5126250;28;20232;-85
2022/05/26 02:26:36;;;;;;;10.37;10.07;;;13.50;99.90;;;;;;5125977;27;20242;-86
2022/05/26 02:31:52;;;;;;;10.40;10.10;;;13.50;99.90;;;;;;5127844;28;20197;-85
2022/05/26 02:34:23;;;;;;;10.00;9.70;;;13.50;99.90;;;;;;5126686;28;20228;-85
2022/05/26 02:37:01;;;;;;;10.30;10.00;;;13.50;99.90;;;;;;5127065;27;20233;-85
2022/05/26 02:39:31;;;;;;;9.93;9.63;;;13.50;99.90;;;;;;5127358;27;20220;-85
2022/05/26 02:42:00;;;;;;;10.00;9.70;;;13.50;99.90;;;;;;5130907;28;20205;-86
2022/05/26 02:44:30;;;;;;;10.20;9.90;;;13.60;99.90;;;;;;5138511;28;20209;-85
2022/05/26 02:47:27;;;;;;;10.27;9.97;;;13.60;99.90;;;;;;5135372;27;20233;-85
2022/05/26 02:50:12;;;;;;;10.07;9.77;;;13.50;99.90;;;;;;5131484;28;20270;-85
2022/05/26 02:53:01;;;;;;;10.30;10.00;;;13.50;99.90;;;;;;5130230;28;20225;-85
2022/05/26 02:55:48;;;;;;;10.40;10.10;;;13.50;99.90;;;;;;5128260;27;20237;-86
2022/05/26 02:58:34;;;;;;;10.20;9.90;;;13.50;99.90;;;;;;5128096;27;20236;-86
2022/05/26 03:01:12;;;;;;;10.40;10.10;;;13.50;99.90;;;;;;5127369;28;20228;-85
2022/05/26 03:03:49;;;;;;;10.57;10.27;;;13.50;99.90;;;;;;5127180;27;20221;-86
2022/05/26 03:06:27;;;;;;;10.80;10.50;;;13.50;99.90;;;;;;5126797;27;20254;-86
2022/05/26 03:09:06;;;;;;;10.57;10.27;;;13.50;99.90;;;;;;5126045;28;20258;-85
2022/05/26 03:11:46;;;;;;;10.83;10.53;;;13.50;99.90;;;;;;5126554;28;20240;-86
2022/05/26 03:14:14;;;;;;;10.87;10.57;;;13.50;99.90;;;;;;5126575;28;20213;-86
2022/05/26 03:16:43;;;;;;;10.93;10.63;;;13.50;99.90;;;;;;5126001;28;20259;-86
2022/05/26 03:19:12;;;;;;;11.07;10.77;;;13.40;99.90;;;;;;5126740;28;20284;-86
2022/05/26 03:21:42;;;;;;;11.03;10.73;;;13.40;99.90;;;;;;5127483;28;20224;-86
2022/05/26 03:24:20;;;;;;;11.10;10.80;;;13.50;99.90;;;;;;5129087;28;20225;-85
2022/05/26 03:26:50;;;;;;;11.20;10.90;;;13.50;99.90;;;;;;5138629;27;20212;-85
2022/05/26 03:29:19;;;;;;;10.80;10.50;;;13.50;99.90;;;;;;5139559;27;20220;-86
2022/05/26 03:31:50;;;;;;;10.60;10.30;;;13.50;99.90;;;;;;5141466;28;20286;-86
2022/05/26 03:42:57;;;;;;;10.50;10.20;;;13.50;99.90;;;;;;5144209;27;20204;-86
2022/05/26 03:45:28;;;;;;;10.20;9.90;;;13.60;99.90;;;;;;5143154;27;20215;-86
2022/05/26 03:47:56;;;;;;;10.40;10.10;;;13.50;99.90;;;;;;5143100;27;20217;-86
2022/05/26 03:50:25;;;;;;;10.10;9.80;;;13.50;99.90;;;;;;5141052;27;20232;-86
2022/05/26 03:52:54;;;;;;;10.23;9.93;;;13.50;99.90;;;;;;5130952;28;20217;-86
2022/05/26 03:55:33;;;;;;;10.47;10.17;;;13.60;99.90;;;;;;5130347;28;20225;-86
2022/05/26 03:58:04;;;;;;;10.20;9.90;;;13.60;99.90;;;;;;5130262;27;20237;-86
2022/05/26 04:00:32;;;;;;;10.50;10.20;;;13.60;99.90;;;;;;5130747;28;20259;-86
2022/05/26 04:03:00;;;;;;;10.50;10.20;;;13.60;99.90;;;;;;5125783;28;20223;-86
2022/05/26 04:05:30;;;;;;;10.20;9.90;;;13.60;99.90;;;;;;5125277;28;20700;-86
2022/05/26 04:07:58;;;;;;;10.13;9.83;;;13.60;99.90;;;;;;5156001;22;20239;-83
2022/05/26 04:10:32;;;;;;;10.40;10.10;;;13.70;99.90;;;;;;5084164;28;20233;-81
2022/05/26 04:13:00;;;;;;;10.33;10.03;;;13.60;99.90;;;;;;5102544;28;20233;-82
2022/05/26 04:15:28;;;;;;;10.40;10.10;;;13.60;99.90;;;;;;5102029;28;20229;-83
2022/05/26 04:17:58;;;;;;;10.40;10.10;;;13.70;99.90;;;;;;5102337;28;20286;-82
2022/05/26 04:20:28;;;;;;;10.20;9.90;;;13.70;99.90;;;;;;5102967;28;20229;-82
2022/05/26 04:22:58;;;;;;;10.37;10.07;;;13.70;99.90;;;;;;5102897;28;20241;-83
2022/05/26 04:25:30;;;;;;;10.37;10.07;;;13.70;99.90;;;;;;5102152;28;20209;-82
2022/05/26 04:27:58;;;;;;;10.50;10.20;;;13.80;99.90;;;;;;5102128;28;20233;-83
2022/05/26 04:30:26;;;;;;;10.20;9.90;;;13.80;99.90;;;;;;5102193;28;20233;-83
2022/05/26 04:32:56;;;;;;;10.23;9.93;;;13.80;99.90;;;;;;5102441;28;20293;-83
2022/05/26 04:35:25;;;;;;;10.20;9.90;;;13.80;99.90;;;;;;5102640;28;20222;-83
2022/05/26 04:37:54;;;;;;;10.13;9.83;;;13.80;99.90;;;;;;5104420;28;20299;-82
2022/05/26 04:40:22;;;;;;;10.47;10.17;;;13.80;99.90;;;;;;5105501;28;20234;-83
2022/05/26 04:42:53;;;;;;;10.57;10.27;;;13.80;99.90;;;;;;5104230;28;20233;-83
2022/05/26 04:45:22;;;;;;;10.40;10.10;;;13.80;99.90;;;;;;5101199;28;20285;-83
2022/05/26 04:47:52;;;;;;;10.40;10.10;;;13.80;99.90;;;;;;5101476;28;20237;-82
2022/05/26 04:50:23;;;;;;;10.40;10.10;;;13.80;99.90;;;;;;5102016;28;20313;-82
2022/05/26 04:52:51;;;;;;;10.40;10.10;;;13.90;99.90;;;;;;5101542;28;20232;-83
2022/05/26 04:55:21;;;;;;;10.60;10.30;;;13.90;99.90;;;;;;5101608;28;20226;-83
2022/05/26 04:57:52;;;;;;;10.40;10.10;;;14.00;99.90;;;;;;5101669;28;20239;-82
2022/05/26 05:00:20;;;;;;;10.18;9.88;;;14.10;99.90;;;;;;5102333;28;20233;-83
2022/05/26 05:02:49;;;;;;;10.20;9.90;;;14.10;99.90;;;;;;5101856;28;20229;-82
2022/05/26 05:05:18;;;;;;;10.60;10.30;;;14.10;99.90;;;;;;5109632;28;20234;-83
2022/05/26 05:07:47;;;;;;;10.40;10.10;;;14.10;99.90;;;;;;5118997;28;20245;-83
2022/05/26 05:10:16;;;;;;;10.20;9.90;;;14.20;99.90;;;;;;5119873;27;20237;-83
2022/05/26 05:12:47;;;;;;;10.27;9.97;;;14.20;99.90;;;;;;5109586;28;20233;-83
2022/05/26 05:15:24;;;;;;;10.40;10.10;;;14.30;99.90;;;;;;5105278;28;20376;-83
2022/05/26 05:17:54;;;;;;;10.60;10.30;;;14.30;99.90;;;;;;5116112;28;20229;-83
2022/05/26 05:20:22;;;;;;;10.30;10.00;;;14.30;99.90;;;;;;5115839;28;20222;-84
2022/05/26 05:22:55;;;;;;;10.30;10.00;;;14.40;99.90;;;;;;5117331;28;20222;-83
2022/05/26 05:25:29;;;;;;;10.65;10.35;;;14.50;99.90;;;;;;5106975;28;20221;-82
2022/05/26 05:28:02;;;;;;;10.18;9.88;;;14.70;99.90;;;;;;5103362;28;20234;-83
2022/05/26 05:30:39;;;;;;;10.57;10.27;;;14.70;99.90;;;;;;5102331;28;20225;-83
2022/05/26 05:33:13;;;;;;;10.38;10.07;;;14.90;99.90;;;;;;5105740;28;20245;-83
2022/05/26 05:35:48;;;;;;;10.30;10.00;;;14.90;99.90;;;;;;5118984;27;20285;-83
2022/05/26 05:38:17;;;;;;;10.35;10.05;;;15.00;99.90;;;;;;5115958;27;20232;-84
2022/05/26 05:40:46;;;;;;;10.25;9.95;;;15.10;99.90;;;;;;5108524;28;20253;-83
2022/05/26 05:43:14;;;;;;;10.45;10.15;;;15.20;99.90;;;;;;5113431;28;20217;-83
2022/05/26 05:45:48;;;;;;;10.48;10.18;;;15.30;99.90;;;;;;5108741;28;20217;-83
2022/05/26 05:48:15;;;;;;;10.30;10.00;;;15.30;99.90;;;;;;5113963;28;20237;-83
2022/05/26 05:50:43;;;;;;;10.50;10.20;;;15.30;99.90;;;;;;5120629;27;20210;-83
2022/05/26 05:53:15;;;;;;;10.52;10.23;;;15.40;99.90;;;;;;5118809;28;20234;-83
2022/05/26 05:55:44;;;;;;;10.80;10.50;;;15.50;99.90;;;;;;5120145;28;20209;-84
2022/05/26 05:58:12;;;;;;;10.68;10.38;;;15.50;99.90;;;;;;5120129;27;20260;-83
2022/05/26 06:00:44;;;;;;;10.50;10.20;;;15.60;99.90;;;;;;5120396;27;20209;-84
2022/05/26 06:03:14;;;;;;;10.80;10.50;;;15.60;99.90;;;;;;5120373;27;20218;-83
2022/05/26 06:05:41;;;;;;;10.90;10.60;;;15.60;99.90;;;;;;5119593;27;20202;-84
2022/05/26 06:08:09;;;;;;;10.68;10.38;;;15.70;99.90;;;;;;5120266;27;20327;-83
2022/05/26 06:10:40;;;;;;;10.77;10.48;;;15.80;99.90;;;;;;5120424;27;20229;-83
2022/05/26 06:13:10;;;;;;;10.70;10.40;;;15.90;99.90;;;;;;5120141;27;20285;-82
2022/05/26 06:15:47;;;;;;;10.77;10.48;;;16.00;99.90;;;;;;5119749;27;20213;-84
2022/05/26 06:18:17;;;;;;;10.80;10.50;;;16.10;99.90;;;;;;5119544;27;20245;-84
2022/05/26 06:20:47;;;;;;;10.88;10.57;;;16.20;99.90;;;;;;5118775;28;20221;-84
2022/05/26 06:23:18;;;;;;;10.82;10.52;;;16.40;99.90;;;;;;5118725;28;20229;-83
2022/05/26 06:25:46;;;;;;;10.90;10.60;;;16.40;99.90;;;;;;5118248;28;20229;-84
2022/05/26 06:31:02;;;;;;;10.80;10.50;;;16.60;99.90;;;;;;5094844;28;20204;-83
2022/05/26 06:39:03;;;;;;;10.40;10.10;;;16.70;99.90;;;;;;5102071;28;20284;-84
2022/05/26 06:44:16;;;;;;;10.85;10.55;;;16.70;99.90;;;;;;5100928;28;20209;-83
2022/05/26 06:46:46;;;;;;;11.07;10.77;;;16.80;99.90;;;;;;5103729;28;20225;-83
2022/05/26 06:49:16;;;;;;;11.00;10.70;;;16.90;99.90;;;;;;5100482;28;20233;-83
2022/05/26 06:51:45;;;;;;;11.10;10.80;;;17.00;99.90;;;;;;5102235;28;20256;-83
2022/05/26 06:54:13;;;;;;;10.65;10.35;;;17.00;99.90;;;;;;5101264;28;20316;-83
2022/05/26 06:56:41;;;;;;;10.70;10.40;;;17.20;99.90;;;;;;5100899;28;20226;-84
2022/05/26 06:59:10;;;;;;;10.80;10.50;;;17.40;99.90;;;;;;5101382;28;20233;-83
2022/05/26 07:01:41;;;;;;;10.82;10.52;;;17.40;99.90;;;;;;5100466;28;20229;-83
2022/05/26 07:04:21;;;;;;;11.10;10.80;;;17.50;99.90;;;;;;5102624;28;20304;-83
2022/05/26 07:06:53;;;;;;;11.10;10.80;;;17.50;99.90;;;;;;5107893;28;20233;-83
2022/05/26 07:09:24;;;;;;;10.77;10.48;;;17.60;99.90;;;;;;5107439;28;20286;-83
2022/05/26 07:11:53;;;;;;;10.60;10.30;;;17.60;99.90;;;;;;5108369;28;20233;-84
2022/05/26 07:14:22;;;;;;;10.98;10.68;;;17.60;99.90;;;;;;5108897;28;20281;-83
2022/05/26 07:16:55;;;;;;;10.85;10.55;;;17.70;99.90;;;;;;5108499;28;20253;-83
2022/05/26 07:19:43;;;;;;;10.70;10.40;;;17.70;99.90;;;;;;5107527;28;20237;-82
2022/05/26 07:22:11;;;;;;;10.85;10.55;;;17.70;99.90;;;;;;5108963;28;20237;-83
2022/05/26 07:24:48;;;;;;;10.65;10.35;;;17.60;99.90;;;;;;5107997;28;20248;-82
2022/05/26 07:27:18;;;;;;;10.68;10.38;;;17.50;99.90;;;;;;5108196;28;20224;-83
2022/05/26 07:29:47;;;;;;;10.55;10.25;;;17.40;99.90;;;;;;5109126;28;20335;-83
2022/05/26 07:32:17;;;;;;;10.60;10.30;;;17.50;99.90;;;;;;5112976;28;20236;-83
2022/05/26 07:34:47;;;;;;;10.60;10.30;;;17.50;99.90;;;;;;5107351;28;20229;-82
2022/05/26 07:42:46;;;;;;;10.82;10.52;;;18.00;99.90;;;;;;5107804;28;20225;-83
2022/05/26 07:45:16;;;;;;;10.90;10.60;;;18.00;99.90;;;;;;5107472;28;20237;-83
2022/05/26 07:47:49;;;;;;;10.95;10.65;;;18.10;99.90;;;;;;5118975;27;20217;-83
2022/05/26 07:50:20;;;;;;;10.80;10.50;;;18.20;99.90;;;;;;5112759;28;20241;-84
2022/05/26 07:52:49;;;;;;;10.95;10.65;;;18.30;99.90;;;;;;5108466;28;20225;-84
2022/05/26 07:55:18;;;;;;;10.98;10.68;;;18.40;99.90;;;;;;5107966;28;20235;-83
2022/05/26 07:57:49;;;;;;;10.50;10.20;;;18.50;99.90;;;;;;5107112;28;20283;-83
2022/05/26 08:00:19;;;;;;;10.80;10.50;;;18.70;99.90;;;;;;5107540;28;20229;-83
2022/05/26 08:02:47;;;;;;;10.70;10.40;;;18.80;99.90;;;;;;5107643;28;20221;-83
2022/05/26 08:05:21;;;;;;;10.77;10.48;;;18.70;99.90;;;;;;5107390;28;20237;-84
2022/05/26 08:07:50;;;;;;;10.75;10.45;;;18.70;99.90;;;;;;5106069;28;20217;-83
2022/05/26 08:10:18;;;;;;;10.80;10.50;;;18.60;99.90;;;;;;5106613;28;20985;-83
2022/05/26 08:12:46;;;;;;;10.70;10.40;;;18.50;99.90;;;;;;5107426;28;20239;-83
2022/05/26 08:15:14;;;;;;;10.70;10.40;;;18.50;99.90;;;;;;5108643;28;20229;-83
2022/05/26 08:17:42;;;;;;;10.88;10.57;;;18.50;99.90;;;;;;5103851;28;20230;-84
2022/05/26 08:20:12;;;;;;;10.65;10.35;;;18.50;99.90;;;;;;5105394;28;20287;-83
2022/05/26 08:22:45;;;;;;;10.40;10.10;;;18.60;99.90;;;;;;5105075;28;20259;-83
2022/05/26 08:25:13;;;;;;;10.40;10.10;;;18.80;99.90;;;;;;5104471;28;20263;-83
2022/05/26 08:27:41;;;;;;;10.70;10.40;;;18.70;99.90;;;;;;5104187;28;20259;-83
2022/05/26 08:30:10;;;;;;;10.90;10.60;;;18.60;99.90;;;;;;5110643;28;20237;-83
2022/05/26 08:32:41;;;;;;;10.60;10.30;;;18.70;99.90;;;;;;5117443;27;20213;-83
2022/05/26 08:35:11;;;;;;;10.65;10.35;;;18.70;99.90;;;;;;5116146;27;20236;-83
2022/05/26 08:37:41;;;;;;;10.63;10.32;;;18.90;99.90;;;;;;5114053;28;20240;-85
2022/05/26 08:40:43;;;;;;;10.50;10.20;;;18.90;99.90;;;;;;5117479;28;20233;-83
2022/05/26 08:43:21;;;;;;;10.43;10.13;;;18.90;99.90;;;;;;5107411;28;20225;-83
2022/05/26 08:45:53;;;;;;;10.68;10.38;;;18.60;99.90;;;;;;5103129;28;20218;-83
2022/05/26 08:48:51;;;;;;;10.20;9.90;;;18.60;99.90;;;;;;5103972;28;20217;-83
2022/05/26 08:51:31;;;;;;;10.20;9.90;;;18.70;99.90;;;;;;5106032;28;20298;-83
2022/05/26 08:54:01;;;;;;;10.35;10.05;;;18.80;99.90;;;;;;5107031;28;20221;-83
2022/05/26 08:56:30;;;;;;;10.30;10.00;;;18.80;99.90;;;;;;5103570;28;20286;-83
2022/05/26 08:59:11;;;;;;;10.50;10.20;;;18.80;99.90;;;;;;5103047;28;20260;-84
2022/05/26 09:01:43;;;;;;;10.70;10.40;;;18.70;99.90;;;;;;5102908;28;20228;-83
2022/05/26 09:04:11;;;;;;;10.55;10.25;;;18.90;99.90;;;;;;5104734;28;20222;-82
2022/05/26 09:15:11;;;;;;;10.45;10.15;;;18.70;99.90;;;;;;5102439;28;20225;-83
2022/05/26 09:17:39;;;;;;;10.27;9.98;;;18.80;99.90;;;;;;5101549;28;20237;-82
2022/05/26 09:20:30;;;;;;;10.27;9.98;;;18.80;99.90;;;;;;5101787;28;20371;-82
2022/05/26 09:23:15;;;;;;;10.35;10.05;;;18.80;99.90;;;;;;5102519;28;20279;-82
2022/05/26 09:25:48;;;;;;;10.68;10.38;;;19.00;99.90;;;;;;5102463;28;20233;-82
2022/05/26 09:28:32;;;;;;;10.73;10.43;;;19.00;99.90;;;;;;5101650;28;20241;-83
2022/05/26 09:31:25;;;;;;;10.50;10.20;;;19.00;99.90;;;;;;5102462;28;20246;-83
2022/05/26 09:34:20;;;;;;;10.15;9.85;;;19.10;99.90;;;;;;5101940;28;20261;-81
2022/05/26 09:36:51;;;;;;;10.25;9.95;;;19.30;99.90;;;;;;5092640;28;21032;-83
2022/05/26 09:39:33;;;;;;;10.38;10.07;;;19.10;99.90;;;;;;5102407;28;20237;-82
2022/05/26 09:42:05;;;;;;;10.40;10.10;;;18.80;99.90;;;;;;5102959;28;20315;-83
2022/05/26 09:44:57;;;;;;;10.30;10.00;;;18.60;99.90;;;;;;5102327;28;20226;-82
2022/05/26 09:47:34;;;;;;;10.20;9.90;;;18.60;99.90;;;;;;5102132;28;20233;-83
2022/05/26 09:50:08;;;;;;;10.50;10.20;;;18.70;99.90;;;;;;5101764;28;20239;-82
2022/05/26 09:52:45;;;;;;;10.30;10.00;;;18.80;99.90;;;;;;5102398;28;20214;-83
2022/05/26 09:55:21;;;;;;;10.38;10.07;;;18.90;99.90;;;;;;5102836;28;20328;-83
2022/05/26 09:57:49;;;;;;;10.50;10.20;;;19.00;99.90;;;;;;5104247;28;20232;-84
2022/05/26 10:00:38;;;;;;;10.38;10.07;;;18.90;99.90;;;;;;5103455;28;20244;-83
2022/05/26 10:03:16;;;;;;;10.20;9.90;;;19.00;99.90;;;;;;5103013;28;20218;-83
2022/05/26 10:05:53;;;;;;;10.38;10.07;;;19.10;99.90;;;;;;5102104;28;20240;-83
2022/05/26 10:08:30;;;;;;;10.30;10.00;;;19.20;99.90;;;;;;5106768;28;20243;-84
2022/05/26 10:11:03;;;;;;;10.20;9.90;;;19.30;99.90;;;;;;5115112;28;20245;-84
2022/05/26 10:13:49;;;;;;;10.60;10.30;;;19.30;99.90;;;;;;5114809;28;20218;-84
2022/05/26 10:16:35;;;;;;;10.50;10.20;;;19.30;99.90;;;;;;5115142;27;20264;-83
2022/05/26 10:19:24;;;;;;;10.68;10.38;;;19.30;99.90;;;;;;5106299;28;20252;-84
2022/05/26 10:22:12;;;;;;;10.60;10.30;;;19.40;99.90;;;;;;5108544;28;20213;-83
2022/05/26 10:25:06;;;;;;;10.45;10.15;;;19.70;99.90;;;;;;5116695;28;20221;-84
2022/05/26 10:28:02;;;;;;;10.25;9.95;;;19.70;99.90;;;;;;5115667;28;20233;-83
2022/05/26 10:30:41;;;;;;;10.18;9.88;;;19.80;99.90;;;;;;5115854;28;20323;-83
2022/05/26 10:33:33;;;;;;;10.40;10.10;;;19.80;99.90;;;;;;5116453;28;20246;-83
2022/05/26 10:36:16;;;;;;;10.80;10.50;;;19.90;99.90;;;;;;5116158;28;20212;-83
2022/05/26 10:39:10;;;;;;;10.52;10.23;;;19.90;99.90;;;;;;5115206;28;20231;-84
2022/05/26 10:41:47;;;;;;;10.63;10.32;;;20.10;99.90;;;;;;5115821;28;20252;-83
2022/05/26 10:44:26;;;;;;;10.90;10.60;;;20.20;99.90;;;;;;5115933;28;20221;-84
2022/05/26 10:47:03;;;;;;;10.60;10.30;;;20.30;99.90;;;;;;5113433;28;20209;-82
2022/05/26 10:49:41;;;;;;;10.50;10.20;;;20.20;99.90;;;;;;5109552;28;20221;-84
2022/05/26 10:52:16;;;;;;;10.70;10.40;;;20.10;99.90;;;;;;5119456;27;20209;-84
2022/05/26 10:54:55;;;;;;;10.40;10.10;;;20.00;99.90;;;;;;5119290;27;20213;-84
2022/05/26 10:57:31;;;;;;;10.20;9.90;;;19.70;99.90;;;;;;5119034;27;20220;-83
2022/05/26 11:00:05;;;;;;;10.30;10.00;;;19.70;99.90;;;;;;5119386;27;20281;-83
2022/05/26 11:02:40;;;;;;;10.40;10.10;;;19.80;99.90;;;;;;5112956;28;20293;-83
2022/05/26 11:05:17;;;;;;;10.30;10.00;;;19.90;99.90;;;;;;5109344;28;20224;-83
2022/05/26 11:07:51;;;;;;;10.70;10.40;;;19.80;99.90;;;;;;5114524;28;20229;-83
2022/05/26 11:10:24;;;;;;;10.60;10.30;;;19.70;99.90;;;;;;5114486;28;20228;-83
2022/05/26 11:13:01;;;;;;;10.50;10.20;;;19.50;99.90;;;;;;5115339;28;20213;-83
2022/05/26 11:18:27;;;;;;;10.35;10.05;;;19.30;99.90;;;;;;5114706;28;20237;-83
2022/05/26 11:20:59;;;;;;;10.10;9.80;;;19.20;99.90;;;;;;5115879;28;20286;-83
2022/05/26 11:23:29;;;;;;;10.13;9.82;;;19.20;99.90;;;;;;5115457;28;20259;-83
2022/05/26 11:26:03;;;;;;;10.10;9.80;;;19.20;99.90;;;;;;5115497;28;20222;-84
2022/05/26 11:28:40;;;;;;;10.15;9.85;;;19.40;99.90;;;;;;5115441;28;20222;-83
2022/05/26 11:36:52;;;;;;;9.90;9.60;;;19.70;99.90;;;;;;5115878;28;20210;-83
2022/05/26 11:39:26;;;;;;;10.25;9.95;;;19.70;99.90;;;;;;5115060;28;20272;-83
2022/05/26 11:41:59;;;;;;;10.00;9.70;;;19.90;99.90;;;;;;5113842;28;20237;-82
2022/05/26 11:44:40;;;;;;;10.30;10.00;;;19.90;99.90;;;;;;5115520;28;20221;-82
2022/05/26 11:47:35;;;;;;;10.60;10.30;;;20.20;99.90;;;;;;5115240;28;20260;-82
2022/05/26 11:50:23;;;;;;;10.40;10.10;;;20.40;99.90;;;;;;5116071;27;20216;-82
2022/05/26 11:53:16;;;;;;;10.48;10.18;;;20.20;99.90;;;;;;5117064;28;20233;-82
2022/05/26 11:55:54;;;;;;;10.50;10.20;;;19.90;99.90;;;;;;5110710;28;20252;-82
2022/05/26 11:58:38;;;;;;;10.30;10.00;;;19.90;99.90;;;;;;5117000;28;20228;-81
2022/05/26 12:01:42;;;;;;;10.43;10.13;;;19.90;99.90;;;;;;5120209;27;20221;-80
2022/05/26 12:04:35;;;;;;;10.30;10.00;;;19.60;99.90;;;;;;5120474;27;20221;-82
2022/05/26 12:07:11;;;;;;;10.32;10.02;;;19.50;99.90;;;;;;5100300;28;20240;-82
2022/05/26 12:09:48;;;;;;;10.43;10.13;;;19.30;99.90;;;;;;5111134;28;20222;-82
2022/05/26 12:12:36;;;;;;;10.40;10.10;;;19.30;99.90;;;;;;5113455;28;20229;-81
2022/05/26 12:15:11;;;;;;;10.50;10.20;;;19.20;99.90;;;;;;5114610;28;20260;-82
2022/05/26 12:17:43;;;;;;;10.40;10.10;;;18.90;99.90;;;;;;5115113;28;20233;-82
2022/05/26 12:20:32;;;;;;;10.40;10.10;;;18.90;99.90;;;;;;5115013;28;20237;-83
2022/05/26 12:23:28;;;;;;;10.40;10.10;;;18.80;99.90;;;;;;5114487;28;20237;-82
2022/05/26 12:26:33;;;;;;;10.48;10.18;;;18.80;99.90;;;;;;5115203;28;20236;-82
2022/05/26 12:29:45;;;;;;;10.48;10.18;;;18.70;99.90;;;;;;5116237;28;20279;-81
2022/05/26 12:32:19;;;;;;;10.40;10.10;;;18.70;99.90;;;;;;5116158;28;20225;-82
2022/05/26 12:35:02;;;;;;;10.65;10.35;;;18.90;99.90;;;;;;5116988;28;20218;-82
2022/05/26 12:37:51;;;;;;;10.60;10.30;;;19.10;99.90;;;;;;5115381;28;20240;-82
2022/05/26 12:40:51;;;;;;;10.50;10.20;;;19.10;99.90;;;;;;5115519;28;20244;-82
2022/05/26 12:43:48;;;;;;;10.52;10.23;;;19.10;99.90;;;;;;5115947;28;20236;-82
2022/05/26 12:46:46;;;;;;;10.45;10.15;;;19.30;99.90;;;;;;5114325;28;20281;-82
2022/05/26 12:49:40;;;;;;;10.70;10.40;;;19.20;99.90;;;;;;5114642;28;20233;-82
2022/05/26 12:52:21;;;;;;;10.40;10.10;;;19.50;99.90;;;;;;5116005;28;20238;-84
2022/05/26 12:54:56;;;;;;;10.30;10.00;;;19.70;99.90;;;;;;5114250;28;20222;-83
2022/05/26 12:57:28;;;;;;;10.57;10.27;;;19.80;99.90;;;;;;5114408;28;20235;-82
2022/05/26 13:00:33;;;;;;;10.60;10.30;;;19.80;99.90;;;;;;5116536;28;20279;-82
2022/05/26 13:03:08;;;;;;;10.60;10.30;;;19.90;99.90;;;;;;5116122;28;20282;-83
2022/05/26 13:05:40;;;;;;;10.40;10.10;;;20.00;99.90;;;;;;5115766;28;20224;-83
2022/05/26 13:08:19;;;;;;;10.65;10.35;;;19.80;99.90;;;;;;5116646;28;20223;-83
2022/05/26 13:10:51;;;;;;;10.20;9.90;;;19.90;99.90;;;;;;5114910;28;20259;-83
2022/05/26 13:13:24;;;;;;;10.40;10.10;;;19.70;99.90;;;;;;5112829;28;20229;-83
2022/05/26 13:15:55;;;;;;;10.52;10.23;;;19.50;99.90;;;;;;5108884;28;20251;-82
2022/05/26 13:18:26;;;;;;;10.25;9.95;;;19.40;99.90;;;;;;5107856;28;20221;-83
2022/05/26 13:20:54;;;;;;;10.20;9.90;;;19.40;99.90;;;;;;5106691;28;20234;-82
2022/05/26 13:23:31;;;;;;;10.30;10.00;;;19.30;99.90;;;;;;5106789;28;20241;-83
2022/05/26 13:26:00;;;;;;;10.30;10.00;;;19.40;99.90;;;;;;5106747;28;20269;-82
2022/05/26 13:28:32;;;;;;;10.10;9.80;;;19.40;99.90;;;;;;5106567;28;20241;-82
2022/05/26 13:33:50;;;;;;;10.20;9.90;;;19.20;99.90;;;;;;5106448;28;20213;-83
2022/05/26 13:36:22;;;;;;;10.27;9.98;;;19.20;99.90;;;;;;5105559;28;20217;-82
2022/05/26 13:38:50;;;;;;;10.00;9.70;;;19.10;99.90;;;;;;5105218;28;20240;-82
2022/05/26 13:41:22;;;;;;;10.02;9.73;;;19.20;99.90;;;;;;5106287;28;20230;-81
2022/05/26 13:43:51;;;;;;;10.20;9.90;;;19.20;99.90;;;;;;5107879;28;20277;-83
2022/05/26 13:46:33;;;;;;;10.40;10.10;;;19.20;99.90;;;;;;5106504;28;20233;-83
2022/05/26 13:49:02;;;;;;;10.00;9.70;;;19.30;99.90;;;;;;5105913;28;20237;-82
2022/05/26 13:51:41;;;;;;;10.40;10.10;;;19.30;99.90;;;;;;5106697;28;20294;-83
2022/05/26 13:54:35;;;;;;;10.30;10.00;;;19.30;99.90;;;;;;5105939;28;20286;-82
2022/05/26 13:57:13;;;;;;;10.10;9.80;;;19.30;99.90;;;;;;5104953;28;20217;-83
2022/05/26 13:59:48;;;;;;;10.38;10.07;;;19.40;99.90;;;;;;5105795;28;20214;-82